Time;durP1;ratioP1;P1;durP2;ratioP2;P2;SDS_P1;SDS_P2;PMS_P1;PMS_P2;Temp;Humidity;BMP_temperature;BMP_pressure;BME280_temperature;BME280_humidity;BME280_pressure;Samples;Min_cycle;Max_cycle;Signal;HPM_P1;HPM_P2
2021/04/23 00:00:24;;;;;;;8.57;6.13;;;9.90;75.60;;;;;;5052109;28;20429;-83
2021/04/23 00:02:50;;;;;;;8.20;5.70;;;9.90;76.10;;;;;;5052248;28;20389;-80
2021/04/23 00:05:16;;;;;;;12.97;5.50;;;9.90;76.50;;;;;;5052746;28;20514;-83
2021/04/23 00:07:42;;;;;;;12.77;5.83;;;9.90;77.60;;;;;;5052858;28;20542;-83
2021/04/23 00:10:11;;;;;;;9.43;5.93;;;9.80;77.10;;;;;;5051886;28;20421;-83
2021/04/23 00:12:37;;;;;;;10.50;5.40;;;9.80;76.80;;;;;;5052406;28;20618;-83
2021/04/23 00:15:07;;;;;;;8.00;4.90;;;9.80;77.10;;;;;;5051629;28;20404;-82
2021/04/23 00:17:34;;;;;;;9.87;5.90;;;9.70;77.20;;;;;;5052769;28;20224;-83
2021/04/23 00:20:00;;;;;;;13.40;5.50;;;9.70;76.80;;;;;;5050883;28;20479;-82
2021/04/23 00:22:26;;;;;;;7.60;5.40;;;9.70;76.90;;;;;;5052571;28;20492;-82
2021/04/23 00:24:52;;;;;;;8.77;5.40;;;9.70;77.70;;;;;;5051955;28;20805;-80
2021/04/23 00:27:18;;;;;;;7.00;6.27;;;9.60;77.60;;;;;;5052282;28;20445;-82
2021/04/23 00:29:43;;;;;;;8.13;6.00;;;9.60;77.90;;;;;;5052433;28;20273;-83
2021/04/23 00:32:09;;;;;;;9.30;6.37;;;9.60;77.40;;;;;;5051641;28;20178;-83
2021/04/23 00:34:35;;;;;;;7.00;5.47;;;9.50;77.40;;;;;;5052582;28;20220;-82
2021/04/23 00:37:01;;;;;;;8.17;5.73;;;9.50;77.70;;;;;;5051603;28;20511;-82
2021/04/23 00:39:28;;;;;;;10.23;6.50;;;9.40;78.30;;;;;;5034378;28;20454;-83
2021/04/23 00:41:53;;;;;;;11.50;6.10;;;9.30;78.70;;;;;;5051567;28;20201;-80
2021/04/23 00:44:19;;;;;;;8.97;6.13;;;9.30;79.00;;;;;;5051895;28;20837;-83
2021/04/23 00:46:45;;;;;;;10.37;5.57;;;9.30;79.20;;;;;;5052135;28;20209;-83
2021/04/23 00:49:11;;;;;;;7.90;6.37;;;9.30;79.40;;;;;;5051445;28;20642;-83
2021/04/23 00:51:41;;;;;;;7.37;5.60;;;9.20;79.90;;;;;;5052179;28;20169;-83
2021/04/23 00:54:08;;;;;;;8.30;6.43;;;9.20;79.80;;;;;;5051414;28;20419;-83
2021/04/23 00:56:39;;;;;;;8.83;5.50;;;9.20;79.90;;;;;;5052201;28;20412;-83
2021/04/23 00:59:08;;;;;;;6.30;5.70;;;9.10;80.50;;;;;;5051151;28;20491;-83
2021/04/23 01:01:40;;;;;;;7.53;6.30;;;9.10;80.60;;;;;;5034229;28;20423;-82
2021/04/23 01:04:10;;;;;;;7.70;6.53;;;9.10;80.70;;;;;;5051361;28;20770;-83
2021/04/23 01:06:36;;;;;;;7.17;6.43;;;9.10;81.20;;;;;;5052084;28;20475;-82
2021/04/23 01:09:17;;;;;;;9.90;5.80;;;9.00;81.50;;;;;;5051213;28;20408;-82
2021/04/23 01:11:44;;;;;;;8.53;6.00;;;9.00;81.40;;;;;;5052159;28;20431;-82
2021/04/23 01:14:10;;;;;;;10.33;6.40;;;8.90;81.10;;;;;;5051176;28;20392;-83
2021/04/23 01:16:37;;;;;;;8.57;6.97;;;8.90;81.00;;;;;;5051922;28;20409;-83
2021/04/23 01:19:04;;;;;;;10.70;6.63;;;8.80;81.00;;;;;;5051120;28;20407;-83
2021/04/23 01:21:32;;;;;;;9.63;6.30;;;8.80;81.20;;;;;;5051902;28;20550;-83
2021/04/23 01:24:00;;;;;;;8.03;6.00;;;8.80;81.50;;;;;;5050969;28;20470;-83
2021/04/23 01:26:30;;;;;;;8.00;7.20;;;8.70;81.80;;;;;;5052099;28;20542;-83
2021/04/23 01:28:56;;;;;;;10.70;6.13;;;8.70;82.20;;;;;;5051243;28;20892;-80
2021/04/23 01:31:27;;;;;;;10.40;6.63;;;8.70;82.40;;;;;;5053020;28;20385;-83
2021/04/23 01:33:58;;;;;;;11.17;7.10;;;8.60;82.70;;;;;;5055709;28;20788;-80
2021/04/23 01:36:27;;;;;;;8.20;6.07;;;8.60;82.50;;;;;;5055403;28;20405;-84
2021/04/23 01:38:53;;;;;;;11.40;6.63;;;8.60;82.70;;;;;;5037905;28;20416;-81
2021/04/23 01:41:20;;;;;;;10.27;7.10;;;8.50;83.00;;;;;;5054965;28;20415;-83
2021/04/23 01:43:47;;;;;;;9.83;5.80;;;8.50;82.70;;;;;;5055510;28;20789;-83
2021/04/23 01:46:13;;;;;;;9.07;6.90;;;8.50;82.60;;;;;;5054643;28;20450;-83
2021/04/23 01:48:39;;;;;;;8.13;7.33;;;8.50;82.80;;;;;;5055476;28;20400;-83
2021/04/23 01:51:10;;;;;;;7.50;6.20;;;8.50;83.30;;;;;;5036942;28;20422;-82
2021/04/23 01:53:36;;;;;;;7.90;6.50;;;8.50;82.70;;;;;;5037434;28;20383;-82
2021/04/23 01:56:03;;;;;;;11.43;6.40;;;8.50;82.80;;;;;;5036680;28;20705;-81
2021/04/23 01:58:30;;;;;;;7.70;5.40;;;8.40;83.20;;;;;;5037512;28;20254;-82
2021/04/23 02:00:56;;;;;;;8.63;6.57;;;8.40;83.40;;;;;;5055000;28;20378;-79
2021/04/23 02:03:22;;;;;;;7.20;6.23;;;8.40;83.20;;;;;;5054870;28;20447;-82
2021/04/23 02:05:50;;;;;;;12.50;6.00;;;8.40;82.80;;;;;;5055111;28;20403;-81
2021/04/23 02:08:18;;;;;;;10.47;6.13;;;8.40;83.10;;;;;;5054247;28;21032;-82
2021/04/23 02:11:13;;;;;;;6.97;6.03;;;8.40;82.90;;;;;;5054982;28;20410;-82
2021/04/23 02:13:40;;;;;;;8.03;6.60;;;8.30;83.00;;;;;;5055208;28;20490;-82
2021/04/23 02:16:09;;;;;;;8.93;6.23;;;8.30;83.00;;;;;;5054447;28;20417;-81
2021/04/23 02:18:36;;;;;;;8.23;6.70;;;8.30;83.70;;;;;;5054885;28;20460;-82
2021/04/23 02:21:07;;;;;;;9.87;6.60;;;8.20;83.60;;;;;;5054145;28;20491;-81
2021/04/23 02:23:33;;;;;;;11.00;6.53;;;8.20;83.30;;;;;;5054476;28;20480;-81
2021/04/23 02:25:59;;;;;;;10.93;6.30;;;8.20;83.70;;;;;;5054156;28;20462;-79
2021/04/23 02:28:25;;;;;;;10.23;6.33;;;8.20;83.80;;;;;;5054909;28;20222;-83
2021/04/23 02:30:58;;;;;;;11.27;6.73;;;8.10;83.70;;;;;;5054624;28;20436;-83
2021/04/23 02:33:25;;;;;;;8.90;6.47;;;8.10;83.60;;;;;;5054411;28;20413;-83
2021/04/23 02:35:54;;;;;;;7.73;6.60;;;8.10;83.60;;;;;;5054502;28;20390;-83
2021/04/23 02:38:20;;;;;;;11.87;6.60;;;8.00;83.60;;;;;;5053775;28;20408;-83
2021/04/23 02:40:47;;;;;;;10.37;6.47;;;8.00;83.90;;;;;;5054444;28;20489;-82
2021/04/23 02:43:18;;;;;;;10.03;6.90;;;7.90;83.70;;;;;;5034905;28;20417;-82
2021/04/23 02:45:44;;;;;;;7.27;6.53;;;8.00;84.50;;;;;;5054493;28;20374;-82
2021/04/23 02:48:12;;;;;;;8.40;7.20;;;7.80;84.40;;;;;;5053257;28;20489;-82
2021/04/23 02:50:43;;;;;;;8.40;7.60;;;7.80;84.70;;;;;;5054293;28;20419;-82
2021/04/23 02:53:09;;;;;;;7.93;6.30;;;7.80;85.10;;;;;;5053340;28;20395;-82
2021/04/23 02:55:35;;;;;;;8.87;6.50;;;7.70;85.20;;;;;;5054265;28;20381;-82
2021/04/23 02:58:05;;;;;;;12.13;6.73;;;7.70;85.30;;;;;;5053582;28;20434;-79
2021/04/23 03:00:36;;;;;;;10.20;7.03;;;7.70;85.40;;;;;;5054162;28;20368;-82
2021/04/23 03:03:04;;;;;;;7.83;7.07;;;7.60;85.40;;;;;;5053512;28;20391;-80
2021/04/23 03:05:30;;;;;;;9.80;7.23;;;7.60;85.90;;;;;;5054344;28;20381;-82
2021/04/23 03:07:57;;;;;;;8.80;7.00;;;7.50;86.00;;;;;;5053864;28;20421;-81
2021/04/23 03:10:27;;;;;;;7.53;6.83;;;7.50;86.10;;;;;;5053478;28;20400;-82
2021/04/23 03:12:53;;;;;;;9.13;6.67;;;7.50;85.90;;;;;;5053572;28;20378;-82
2021/04/23 03:15:22;;;;;;;8.60;7.13;;;7.60;86.50;;;;;;5053356;28;20537;-82
2021/04/23 03:17:49;;;;;;;7.80;7.10;;;7.50;86.40;;;;;;5053731;28;20400;-82
2021/04/23 03:20:19;;;;;;;8.27;6.87;;;7.50;86.60;;;;;;5052643;28;20463;-82
2021/04/23 03:22:46;;;;;;;7.33;6.73;;;7.50;86.80;;;;;;5053561;28;20406;-82
2021/04/23 03:25:13;;;;;;;15.73;7.07;;;7.60;86.80;;;;;;5052466;28;20442;-81
2021/04/23 03:27:40;;;;;;;10.10;7.57;;;7.40;86.60;;;;;;5053591;28;20464;-81
2021/04/23 03:30:10;;;;;;;9.43;6.90;;;7.40;86.90;;;;;;5052719;28;20463;-81
2021/04/23 03:32:36;;;;;;;8.20;7.40;;;7.30;86.70;;;;;;5036131;28;20402;-82
2021/04/23 03:35:02;;;;;;;9.67;7.27;;;7.30;86.60;;;;;;5053087;28;20382;-79
2021/04/23 03:37:28;;;;;;;10.10;7.23;;;7.20;86.10;;;;;;5053171;28;20176;-81
2021/04/23 03:39:53;;;;;;;11.33;7.80;;;7.20;86.40;;;;;;5053396;28;20386;-81
2021/04/23 03:42:19;;;;;;;10.13;7.30;;;7.20;87.50;;;;;;5034621;28;20281;-81
2021/04/23 03:44:45;;;;;;;7.47;6.47;;;7.10;86.70;;;;;;5053229;28;20183;-81
2021/04/23 03:47:11;;;;;;;9.03;8.20;;;7.10;86.90;;;;;;5052320;28;20198;-81
2021/04/23 03:49:36;;;;;;;12.60;9.47;;;7.10;87.30;;;;;;5053131;28;20174;-82
2021/04/23 03:52:04;;;;;;;12.30;7.30;;;7.00;87.50;;;;;;5052406;28;20174;-78
2021/04/23 03:54:30;;;;;;;8.38;7.10;;;7.00;87.30;;;;;;5052701;28;20186;-82
2021/04/23 03:56:55;;;;;;;10.60;9.47;;;7.00;87.50;;;;;;5053030;28;20179;-82
2021/04/23 03:59:21;;;;;;;10.80;9.70;;;7.00;88.20;;;;;;5052479;28;20175;-82
2021/04/23 04:01:47;;;;;;;9.97;8.50;;;6.90;88.50;;;;;;5053025;28;20684;-81
2021/04/23 04:04:13;;;;;;;8.13;7.17;;;7.00;88.60;;;;;;5052076;28;20182;-81
2021/04/23 04:06:38;;;;;;;10.27;7.63;;;7.00;88.60;;;;;;5052775;28;20246;-81
2021/04/23 04:09:05;;;;;;;10.20;7.63;;;6.90;88.10;;;;;;5034531;28;20219;-79
2021/04/23 04:11:31;;;;;;;12.03;7.40;;;6.90;88.20;;;;;;5052673;28;20177;-81
2021/04/23 04:13:57;;;;;;;9.17;8.40;;;6.90;88.20;;;;;;5053001;28;20383;-82
2021/04/23 04:16:23;;;;;;;13.53;8.67;;;6.90;88.10;;;;;;5051870;28;20630;-82
2021/04/23 04:18:49;;;;;;;10.30;7.10;;;6.90;88.50;;;;;;5052615;28;20372;-81
2021/04/23 04:21:14;;;;;;;9.03;7.23;;;6.90;88.90;;;;;;5051812;28;20889;-81
2021/04/23 04:23:40;;;;;;;10.77;8.53;;;6.90;89.10;;;;;;5052134;28;20225;-81
2021/04/23 04:26:06;;;;;;;12.00;7.23;;;6.90;89.20;;;;;;5051787;28;20174;-79
2021/04/23 04:28:32;;;;;;;11.40;8.60;;;6.90;89.10;;;;;;5052513;28;20235;-83
2021/04/23 04:30:59;;;;;;;8.10;6.37;;;6.90;88.80;;;;;;5052476;28;20415;-83
2021/04/23 04:33:25;;;;;;;9.57;7.57;;;6.90;88.90;;;;;;5033777;28;20402;-83
2021/04/23 04:35:51;;;;;;;8.63;7.30;;;6.90;89.40;;;;;;5052458;28;20462;-82
2021/04/23 04:38:17;;;;;;;12.20;8.20;;;6.90;89.40;;;;;;5051561;28;20182;-82
2021/04/23 04:40:46;;;;;;;11.37;8.10;;;6.90;88.70;;;;;;5052255;28;20413;-82
2021/04/23 04:43:13;;;;;;;11.20;8.20;;;6.90;89.00;;;;;;5051424;28;20376;-82
2021/04/23 04:45:41;;;;;;;10.88;6.90;;;6.90;89.40;;;;;;5034662;28;20783;-81
2021/04/23 04:48:09;;;;;;;10.93;6.70;;;6.90;89.30;;;;;;5051557;28;20550;-79
2021/04/23 04:50:48;;;;;;;10.00;7.43;;;6.90;89.60;;;;;;5052143;28;20486;-81
2021/04/23 04:53:16;;;;;;;10.40;7.10;;;6.80;89.60;;;;;;5051360;28;20186;-82
2021/04/23 04:55:44;;;;;;;11.82;7.57;;;6.80;90.00;;;;;;5034429;28;20528;-82
2021/04/23 04:58:11;;;;;;;14.50;8.60;;;6.90;90.10;;;;;;5051398;28;20189;-81
2021/04/23 05:00:39;;;;;;;8.67;6.90;;;6.90;90.30;;;;;;5052089;28;20416;-82
2021/04/23 05:03:08;;;;;;;11.17;8.70;;;6.90;90.40;;;;;;5051996;28;20410;-82
2021/04/23 05:05:34;;;;;;;8.93;7.97;;;6.90;90.40;;;;;;5034152;28;20416;-82
2021/04/23 05:08:00;;;;;;;10.70;8.00;;;7.00;90.40;;;;;;5056143;28;20482;-82
2021/04/23 05:10:27;;;;;;;9.97;8.00;;;6.90;90.30;;;;;;5055643;28;20444;-82
2021/04/23 05:12:53;;;;;;;10.68;6.40;;;7.00;90.30;;;;;;5038620;28;20411;-82
2021/04/23 05:15:20;;;;;;;11.87;7.80;;;7.00;90.30;;;;;;5037316;28;20649;-82
2021/04/23 05:17:47;;;;;;;10.23;6.53;;;7.00;90.30;;;;;;5055855;28;20735;-82
2021/04/23 05:20:15;;;;;;;11.73;8.87;;;7.10;90.40;;;;;;5055222;28;20178;-82
2021/04/23 05:22:41;;;;;;;13.05;8.15;;;7.00;90.00;;;;;;5055868;28;20394;-81
2021/04/23 05:25:10;;;;;;;10.97;9.70;;;7.00;90.00;;;;;;5055692;28;20300;-80
2021/04/23 05:27:36;;;;;;;14.70;8.70;;;7.10;90.00;;;;;;5055615;28;20452;-82
2021/04/23 05:30:04;;;;;;;11.20;8.63;;;7.10;89.60;;;;;;5055826;28;20413;-82
2021/04/23 05:32:30;;;;;;;10.90;8.60;;;7.20;89.90;;;;;;5054858;28;20405;-83
2021/04/23 05:34:55;;;;;;;11.20;9.23;;;7.20;89.80;;;;;;5055683;28;20408;-81
2021/04/23 05:37:22;;;;;;;10.77;8.90;;;7.30;89.70;;;;;;5054860;28;20189;-82
2021/04/23 05:39:49;;;;;;;12.80;8.50;;;7.40;89.70;;;;;;5055588;28;20177;-81
2021/04/23 05:42:15;;;;;;;11.03;8.63;;;7.40;89.00;;;;;;5054746;28;20544;-80
2021/04/23 05:44:42;;;;;;;13.30;8.47;;;7.40;88.90;;;;;;5055563;28;20434;-82
2021/04/23 05:47:08;;;;;;;11.27;9.50;;;7.40;89.20;;;;;;5055105;28;20445;-80
2021/04/23 05:49:35;;;;;;;15.00;10.37;;;7.50;89.10;;;;;;5037180;28;20413;-82
2021/04/23 05:52:02;;;;;;;11.87;9.73;;;7.60;89.00;;;;;;5055362;28;20414;-82
2021/04/23 05:54:28;;;;;;;16.00;9.10;;;7.60;89.10;;;;;;5054183;28;20466;-81
2021/04/23 05:56:54;;;;;;;15.13;9.50;;;7.70;89.10;;;;;;5037501;28;20499;-82
2021/04/23 05:59:21;;;;;;;12.53;9.03;;;7.80;89.20;;;;;;5054503;28;20412;-82
2021/04/23 06:01:47;;;;;;;18.20;10.03;;;7.80;88.80;;;;;;5055197;28;20415;-82
2021/04/23 06:04:13;;;;;;;13.63;9.03;;;7.90;88.10;;;;;;5054461;28;20842;-79
2021/04/23 06:06:39;;;;;;;14.07;11.00;;;7.90;88.10;;;;;;5036961;28;20452;-82
2021/04/23 06:09:06;;;;;;;11.93;9.77;;;8.00;88.10;;;;;;5054686;28;20745;-83
2021/04/23 06:11:33;;;;;;;16.97;10.10;;;8.10;88.10;;;;;;5036834;28;20734;-82
2021/04/23 06:13:59;;;;;;;11.83;8.83;;;8.20;88.00;;;;;;5055012;28;20417;-82
2021/04/23 06:16:25;;;;;;;13.93;9.70;;;8.30;88.50;;;;;;5054142;28;20423;-83
2021/04/23 06:18:51;;;;;;;14.77;9.10;;;8.30;88.30;;;;;;5055007;28;20186;-83
2021/04/23 06:21:17;;;;;;;12.00;8.73;;;8.40;88.30;;;;;;5054079;28;20414;-83
2021/04/23 06:23:43;;;;;;;13.23;9.50;;;8.50;88.60;;;;;;5054451;28;20514;-83
2021/04/23 06:26:09;;;;;;;12.27;9.30;;;8.60;88.60;;;;;;5054653;28;20911;-83
2021/04/23 06:28:35;;;;;;;13.47;9.70;;;8.60;87.90;;;;;;5053952;28;20420;-82
2021/04/23 06:31:05;;;;;;;15.90;10.43;;;8.60;87.80;;;;;;5054437;28;20413;-82
2021/04/23 06:33:39;;;;;;;11.70;9.27;;;8.80;87.60;;;;;;5053843;28;20419;-81
2021/04/23 06:36:06;;;;;;;15.13;8.93;;;8.80;87.00;;;;;;5054861;28;20473;-82
2021/04/23 06:38:32;;;;;;;13.70;9.63;;;8.80;87.30;;;;;;5053730;28;20396;-81
2021/04/23 06:40:58;;;;;;;12.97;9.50;;;8.90;87.00;;;;;;5054160;28;20408;-81
2021/04/23 06:43:25;;;;;;;12.13;8.53;;;9.00;86.90;;;;;;5053666;28;20416;-83
2021/04/23 06:45:52;;;;;;;11.60;9.07;;;9.10;87.50;;;;;;5054516;28;20491;-82
2021/04/23 06:48:18;;;;;;;11.87;9.60;;;9.20;88.50;;;;;;5053390;28;20491;-81
2021/04/23 06:50:45;;;;;;;12.10;9.70;;;9.20;88.10;;;;;;5054354;28;20838;-82
2021/04/23 06:53:11;;;;;;;10.97;8.53;;;9.30;87.80;;;;;;5054228;28;20473;-82
2021/04/23 06:55:37;;;;;;;13.90;10.00;;;9.40;87.40;;;;;;5053468;28;20416;-82
2021/04/23 06:58:03;;;;;;;16.60;10.27;;;9.50;87.50;;;;;;5054191;28;20389;-84
2021/04/23 07:00:32;;;;;;;11.23;7.63;;;9.60;86.40;;;;;;5053342;28;20316;-80
2021/04/23 07:03:00;;;;;;;10.50;8.97;;;9.50;85.60;;;;;;5054038;28;20758;-81
2021/04/23 07:05:27;;;;;;;15.30;8.23;;;9.60;86.50;;;;;;5053216;28;20401;-80
2021/04/23 07:07:57;;;;;;;10.03;7.93;;;9.60;85.50;;;;;;5053492;28;20931;-80
2021/04/23 07:10:26;;;;;;;14.10;9.07;;;9.70;86.80;;;;;;5053088;28;20417;-80
2021/04/23 07:12:51;;;;;;;9.50;7.43;;;9.70;87.40;;;;;;5036009;28;20411;-80
2021/04/23 07:15:21;;;;;;;9.80;6.27;;;9.80;88.20;;;;;;5035275;28;20408;-79
2021/04/23 07:17:47;;;;;;;15.37;5.90;;;9.90;88.30;;;;;;5053702;28;20551;-81
2021/04/23 07:20:14;;;;;;;14.23;7.00;;;9.90;88.10;;;;;;5053633;28;20405;-79
2021/04/23 07:22:40;;;;;;;13.93;8.47;;;10.10;86.50;;;;;;5052887;28;20413;-83
2021/04/23 07:25:06;;;;;;;11.43;6.97;;;10.10;85.80;;;;;;5053200;28;20448;-82
2021/04/23 07:27:36;;;;;;;12.60;6.00;;;10.20;84.40;;;;;;5052718;28;20451;-80
2021/04/23 07:30:07;;;;;;;9.47;7.20;;;10.20;85.00;;;;;;5052677;28;20496;-81
2021/04/23 07:32:34;;;;;;;9.87;6.47;;;10.30;83.60;;;;;;5052790;28;20413;-80
2021/04/23 07:35:00;;;;;;;17.70;8.50;;;10.50;84.40;;;;;;5053422;28;20409;-81
2021/04/23 07:37:26;;;;;;;11.27;7.70;;;10.50;83.40;;;;;;5052618;28;20404;-80
2021/04/23 07:39:55;;;;;;;13.53;7.53;;;10.60;84.00;;;;;;5053654;28;20419;-80
2021/04/23 07:42:21;;;;;;;6.60;5.80;;;10.80;81.90;;;;;;5034828;28;20466;-89
2021/04/23 07:44:46;;;;;;;9.83;6.40;;;11.20;85.50;;;;;;5035840;28;20416;-89
2021/04/23 07:47:12;;;;;;;7.47;5.40;;;11.80;87.20;;;;;;5052993;28;20813;-88
2021/04/23 07:49:38;;;;;;;7.27;6.37;;;12.30;86.00;;;;;;5052427;28;20242;-82
2021/04/23 07:52:04;;;;;;;8.73;5.87;;;12.90;86.30;;;;;;5053262;28;20191;-81
2021/04/23 07:54:31;;;;;;;7.93;7.13;;;13.10;76.40;;;;;;5052462;28;20416;-83
2021/04/23 07:56:57;;;;;;;15.43;7.93;;;13.00;73.30;;;;;;5052970;28;20896;-81
2021/04/23 07:59:22;;;;;;;9.00;6.60;;;12.90;72.00;;;;;;5052035;28;20505;-81
2021/04/23 08:01:53;;;;;;;8.70;6.57;;;12.70;71.80;;;;;;5053185;28;20177;-82
2021/04/23 08:04:19;;;;;;;8.40;6.30;;;12.50;71.90;;;;;;5034675;28;20199;-80
2021/04/23 08:06:45;;;;;;;7.30;5.97;;;12.30;71.90;;;;;;5052776;28;20470;-82
2021/04/23 08:09:11;;;;;;;10.63;6.30;;;12.20;72.10;;;;;;5053004;28;20411;-81
2021/04/23 08:11:36;;;;;;;8.60;6.43;;;12.00;71.50;;;;;;5051910;28;20175;-81
2021/04/23 08:14:02;;;;;;;8.97;7.30;;;11.90;72.60;;;;;;5052699;28;20188;-81
2021/04/23 08:16:28;;;;;;;7.63;6.13;;;11.70;71.20;;;;;;5051647;28;20181;-81
2021/04/23 08:18:54;;;;;;;7.60;5.17;;;11.70;72.80;;;;;;5052360;28;20435;-81
2021/04/23 08:21:24;;;;;;;14.00;8.70;;;11.60;71.70;;;;;;5051936;28;20893;-80
2021/04/23 08:23:49;;;;;;;10.03;6.87;;;11.60;71.70;;;;;;5052262;28;20477;-81
2021/04/23 08:26:16;;;;;;;9.30;6.67;;;11.60;71.40;;;;;;5034404;28;20421;-81
2021/04/23 08:28:43;;;;;;;9.20;8.30;;;11.70;74.80;;;;;;5052028;28;20447;-80
2021/04/23 08:31:12;;;;;;;8.33;7.03;;;11.60;70.80;;;;;;5035396;28;20412;-80
2021/04/23 08:33:38;;;;;;;7.80;6.07;;;11.60;70.70;;;;;;5051605;28;20713;-81
2021/04/23 08:36:04;;;;;;;157.60;111.50;;;11.60;72.30;;;;;;5034444;28;20272;-82
2021/04/23 08:38:30;;;;;;;339.67;212.83;;;11.70;74.60;;;;;;5051561;28;20455;-80
2021/04/23 08:40:57;;;;;;;35.97;27.73;;;11.90;75.80;;;;;;5051528;28;20431;-81
2021/04/23 08:43:24;;;;;;;9.00;6.73;;;12.10;75.80;;;;;;5051556;28;20218;-80
2021/04/23 08:45:50;;;;;;;8.33;7.63;;;12.30;70.80;;;;;;5052219;28;20419;-80
2021/04/23 08:48:16;;;;;;;9.63;7.70;;;12.40;71.30;;;;;;5034572;28;20444;-79
2021/04/23 08:50:44;;;;;;;11.20;6.20;;;12.50;68.00;;;;;;5033564;28;21233;-81
2021/04/23 08:53:11;;;;;;;6.43;5.50;;;12.60;69.80;;;;;;5034445;28;20431;-81
2021/04/23 08:55:38;;;;;;;8.20;7.00;;;12.60;70.30;;;;;;5033320;28;20954;-80
2021/04/23 08:58:03;;;;;;;7.80;6.17;;;12.50;70.00;;;;;;5052111;28;20503;-79
2021/04/23 09:00:30;;;;;;;8.80;6.60;;;12.60;69.30;;;;;;5051318;28;20519;-79
2021/04/23 09:02:56;;;;;;;6.67;6.10;;;12.30;68.50;;;;;;5052097;28;20483;-80
2021/04/23 09:05:22;;;;;;;8.10;6.50;;;12.40;66.80;;;;;;5051648;28;20415;-79
2021/04/23 09:08:05;;;;;;;6.80;5.37;;;12.50;68.80;;;;;;5034003;28;20509;-79
2021/04/23 09:10:33;;;;;;;7.80;7.10;;;12.70;69.10;;;;;;5051236;28;20414;-87
2021/04/23 09:13:16;;;;;;;8.60;7.90;;;12.80;72.60;;;;;;5034130;28;20429;-90
2021/04/23 09:15:45;;;;;;;8.97;8.27;;;13.10;69.90;;;;;;5051484;28;20419;-79
2021/04/23 09:18:14;;;;;;;8.33;7.50;;;13.30;68.00;;;;;;5052058;28;20931;-78
2021/04/23 09:20:48;;;;;;;6.60;6.10;;;13.50;70.80;;;;;;5051115;28;20409;-79
2021/04/23 09:23:22;;;;;;;7.70;7.10;;;13.80;65.80;;;;;;5052028;28;20457;-79
2021/04/23 09:25:49;;;;;;;7.57;6.23;;;14.00;62.90;;;;;;5051546;28;20467;-80
2021/04/23 09:28:35;;;;;;;8.50;7.83;;;14.10;64.30;;;;;;5051690;28;20458;-80
2021/04/23 09:31:24;;;;;;;119.63;72.03;;;14.40;64.90;;;;;;5051940;28;20444;-79
2021/04/23 09:34:02;;;;;;;11.87;10.63;;;14.40;67.00;;;;;;5051387;28;20425;-79
2021/04/23 09:36:36;;;;;;;10.53;8.73;;;14.50;67.80;;;;;;5051064;28;20406;-90
2021/04/23 09:39:22;;;;;;;9.03;8.23;;;14.60;67.00;;;;;;5033755;28;20757;-85
2021/04/23 09:41:54;;;;;;;10.03;9.07;;;14.60;67.90;;;;;;5051438;28;20510;-86
2021/04/23 09:44:25;;;;;;;9.17;8.37;;;14.60;63.70;;;;;;5051701;28;20454;-83
2021/04/23 09:46:59;;;;;;;12.30;9.00;;;14.50;66.90;;;;;;5051314;28;20450;-84
2021/04/23 09:49:26;;;;;;;9.43;8.53;;;14.40;64.50;;;;;;5051098;28;20418;-79
2021/04/23 09:51:52;;;;;;;12.07;9.33;;;14.10;64.40;;;;;;5052056;28;20421;-83
2021/04/23 09:54:20;;;;;;;10.17;8.87;;;13.90;64.00;;;;;;5055499;28;20419;-82
2021/04/23 09:56:46;;;;;;;9.10;8.30;;;13.90;66.50;;;;;;5054633;28;20760;-83
2021/04/23 09:59:24;;;;;;;10.70;8.70;;;14.20;64.70;;;;;;5055284;28;20815;-83
2021/04/23 10:01:53;;;;;;;9.23;8.43;;;14.50;65.00;;;;;;5054939;28;20420;-83
2021/04/23 10:04:20;;;;;;;14.07;8.67;;;14.80;63.00;;;;;;5054918;28;20413;-83
2021/04/23 10:06:47;;;;;;;9.37;8.13;;;15.10;59.30;;;;;;5054236;28;20681;-82
2021/04/23 10:09:12;;;;;;;9.43;8.63;;;15.30;58.90;;;;;;5055272;28;20768;-83
2021/04/23 10:11:42;;;;;;;10.00;9.10;;;15.60;64.90;;;;;;5054266;28;20401;-83
2021/04/23 10:14:10;;;;;;;10.43;9.13;;;15.80;57.40;;;;;;5054842;28;20536;-83
2021/04/23 10:16:39;;;;;;;12.77;10.10;;;16.00;58.90;;;;;;5054201;28;20410;-83
2021/04/23 10:19:05;;;;;;;10.57;9.67;;;15.80;55.60;;;;;;5054863;28;20896;-82
2021/04/23 10:21:31;;;;;;;9.77;8.60;;;15.80;56.30;;;;;;5053639;28;20423;-83
2021/04/23 10:23:59;;;;;;;12.47;11.37;;;15.90;57.40;;;;;;5054707;28;20472;-83
2021/04/23 10:26:26;;;;;;;10.33;9.27;;;16.10;57.50;;;;;;5054621;28;20187;-79
2021/04/23 10:28:53;;;;;;;8.77;7.80;;;16.30;59.80;;;;;;5054505;28;20419;-82
2021/04/23 10:31:19;;;;;;;9.63;7.80;;;16.40;59.50;;;;;;5054982;28;20471;-83
2021/04/23 10:33:45;;;;;;;9.37;8.60;;;16.50;59.70;;;;;;5053593;28;20430;-83
2021/04/23 10:36:11;;;;;;;9.43;7.37;;;16.70;58.60;;;;;;5036839;28;20502;-83
2021/04/23 10:38:39;;;;;;;11.17;8.47;;;16.90;57.80;;;;;;5035811;28;20995;-83
2021/04/23 10:41:10;;;;;;;9.57;8.77;;;17.10;57.10;;;;;;5054476;28;20503;-83
2021/04/23 10:43:53;;;;;;;7.70;7.00;;;17.10;57.90;;;;;;5053621;28;20440;-83
2021/04/23 10:46:21;;;;;;;8.17;7.20;;;17.40;57.10;;;;;;5054908;28;20480;-83
2021/04/23 10:48:49;;;;;;;8.20;7.50;;;17.60;56.40;;;;;;5035852;28;20814;-83
2021/04/23 10:51:18;;;;;;;10.13;9.10;;;17.70;55.80;;;;;;5036458;28;20401;-83
2021/04/23 10:53:46;;;;;;;9.50;7.97;;;17.80;54.40;;;;;;5053385;28;20900;-83
2021/04/23 10:56:26;;;;;;;10.87;8.20;;;17.70;55.50;;;;;;5054497;28;20420;-83
2021/04/23 10:58:53;;;;;;;9.90;9.10;;;17.80;57.60;;;;;;5053846;28;20397;-83
2021/04/23 11:01:31;;;;;;;8.27;7.33;;;17.80;55.40;;;;;;5054163;28;20409;-83
2021/04/23 11:04:11;;;;;;;8.03;7.20;;;17.80;55.20;;;;;;5053203;28;20506;-83
2021/04/23 11:07:03;;;;;;;9.83;6.47;;;17.90;55.30;;;;;;5053105;28;20963;-82
2021/04/23 11:09:29;;;;;;;12.30;11.00;;;17.70;55.50;;;;;;5053591;28;20423;-82
2021/04/23 11:12:21;;;;;;;12.13;10.40;;;18.10;67.00;;;;;;5053680;28;20400;-81
2021/04/23 11:14:47;;;;;;;8.90;8.10;;;18.70;63.80;;;;;;5048427;28;20232;-81
2021/04/23 11:17:18;;;;;;;10.30;9.27;;;19.10;64.30;;;;;;5036143;28;20444;-81
2021/04/23 11:19:46;;;;;;;8.60;7.80;;;19.50;59.10;;;;;;5053386;28;20173;-81
2021/04/23 11:22:17;;;;;;;9.67;8.70;;;19.80;56.20;;;;;;5053688;28;20412;-81
2021/04/23 11:25:01;;;;;;;7.60;6.80;;;20.10;52.00;;;;;;5047061;28;20876;-81
2021/04/23 11:27:27;;;;;;;8.70;7.80;;;20.00;54.40;;;;;;5053472;28;20451;-81
2021/04/23 11:29:52;;;;;;;9.57;8.80;;;20.20;51.90;;;;;;5052354;28;20869;-81
2021/04/23 11:32:26;;;;;;;8.00;7.27;;;20.40;53.60;;;;;;5053586;28;20180;-81
2021/04/23 11:34:53;;;;;;;8.63;7.77;;;20.70;54.30;;;;;;5052794;28;20494;-81
2021/04/23 11:37:46;;;;;;;8.10;7.30;;;20.90;53.90;;;;;;5035667;28;20420;-81
2021/04/23 11:40:28;;;;;;;8.10;7.50;;;21.00;52.90;;;;;;5053528;28;20400;-81
2021/04/23 11:42:56;;;;;;;9.53;8.63;;;21.20;53.40;;;;;;5052783;28;20478;-79
2021/04/23 11:45:27;;;;;;;8.33;7.63;;;21.20;52.40;;;;;;5053259;28;20408;-80
2021/04/23 11:48:14;;;;;;;9.33;8.43;;;21.30;50.30;;;;;;5052315;28;21030;-79
2021/04/23 11:50:42;;;;;;;10.50;9.50;;;21.40;51.20;;;;;;5051398;28;20920;-79
2021/04/23 11:53:13;;;;;;;16.75;15.13;;;21.50;49.90;;;;;;5051736;28;20510;-81
2021/04/23 11:55:50;;;;;;;12.67;11.57;;;21.60;50.20;;;;;;5051907;28;20166;-81
2021/04/23 11:58:21;;;;;;;11.10;9.70;;;21.40;49.10;;;;;;5053095;28;20462;-82
2021/04/23 12:01:01;;;;;;;9.23;8.30;;;21.50;48.90;;;;;;5052190;28;20429;-82
2021/04/23 12:03:27;;;;;;;9.53;8.53;;;21.60;50.00;;;;;;5035339;28;20393;-81
2021/04/23 12:05:58;;;;;;;11.07;9.63;;;21.70;50.10;;;;;;5052170;28;20558;-81
2021/04/23 12:08:25;;;;;;;8.97;8.17;;;21.80;47.50;;;;;;5052909;28;20444;-81
2021/04/23 12:11:04;;;;;;;8.17;7.47;;;21.80;48.70;;;;;;5051737;28;20483;-81
2021/04/23 12:13:40;;;;;;;8.60;7.77;;;21.80;50.20;;;;;;5053112;28;20782;-81
2021/04/23 12:16:12;;;;;;;8.90;8.10;;;21.90;49.20;;;;;;5028684;28;20398;-81
2021/04/23 12:18:51;;;;;;;8.40;7.70;;;22.00;49.40;;;;;;5051488;28;20415;-80
2021/04/23 12:21:18;;;;;;;9.40;8.50;;;22.00;49.40;;;;;;5034512;28;20400;-81
2021/04/23 12:23:45;;;;;;;9.73;8.93;;;22.00;48.40;;;;;;5041294;28;20463;-81
2021/04/23 12:26:12;;;;;;;9.33;8.40;;;22.00;48.90;;;;;;5072472;28;20781;-81
2021/04/23 12:28:47;;;;;;;10.00;9.10;;;22.10;48.20;;;;;;5071663;28;20467;-81
2021/04/23 12:31:18;;;;;;;9.50;7.63;;;22.20;48.60;;;;;;5072773;28;20411;-81
2021/04/23 12:33:48;;;;;;;9.50;8.60;;;22.10;48.40;;;;;;5071746;28;20490;-81
2021/04/23 12:36:25;;;;;;;10.27;9.27;;;22.20;47.00;;;;;;5072489;28;20403;-81
2021/04/23 12:38:57;;;;;;;10.70;9.90;;;21.50;44.00;;;;;;5070468;28;20776;-81
2021/04/23 12:41:31;;;;;;;8.30;7.60;;;21.30;47.20;;;;;;5072410;28;20874;-80
2021/04/23 12:43:59;;;;;;;8.37;7.67;;;21.20;49.40;;;;;;5072876;28;20399;-81
2021/04/23 12:46:37;;;;;;;8.10;7.50;;;21.10;48.90;;;;;;5075333;28;20896;-78
2021/04/23 12:49:18;;;;;;;9.90;8.97;;;21.10;48.40;;;;;;5090070;28;20733;-90
2021/04/23 12:52:01;;;;;;;10.67;9.67;;;21.10;46.90;;;;;;5076983;28;20403;-90
2021/04/23 12:54:33;;;;;;;10.03;9.17;;;20.90;45.00;;;;;;5079671;28;20418;-90